Clipper Panorama — V7KT2 — position and weather

sailwx.info

Track history (hours):
 
Tides and Currents Weather Stations Pressure Air Temp Water Temp Dewpoint Dewpoint Depression Visibility Wind Speed Wind Dir Waves Ship Positions

Clipper Panorama

Last reported at 2017-Mar-29 02:30 UTC. Time now 2017-Mar-29 19:06 UTC.
Position N 27°13' W 015°23'.

Length 180 m; draft 9.5 m.

Type: Cargo ship. MMSI: 538007055.

Date/timePositionNaut miles runAvg speedWind from/ knotsBaromVisibWave heightAir tempDewpointWater temp
2017-Mar-29 02:30N 27°13' W 015°23'4711.9
2017-Mar-28 22:33N 27°57' W 015°05'1211.9
2017-Mar-28 21:33N 28°08' W 015°00'1212.4
2017-Mar-28 20:33N 28°20' W 014°55'1212.3
2017-Mar-28 19:33N 28°31' W 014°49'1212.1
2017-Mar-28 18:33N 28°42' W 014°44'1212.2
2017-Mar-28 17:33N 28°53' W 014°38'1212.1
2017-Mar-28 16:33N 29°04' W 014°32'1212.0
2017-Mar-28 15:34N 29°15' W 014°26'1211.9
2017-Mar-28 14:33N 29°26' W 014°20'1211.9
2017-Mar-28 13:33N 29°37' W 014°15'1211.8
2017-Mar-28 12:33N 29°47' W 014°09'1211.6
2017-Mar-28 11:33N 29°58' W 014°03'1211.5
2017-Mar-28 10:33N 30°08' W 013°58'3611.7
2017-Mar-28 07:31N 30°40' W 013°40'  
2017-Mar-23 17:19N 49°44' W 003°38'911.4
2017-Mar-23 16:30N 49°49' W 003°26'1011.0
2017-Mar-23 15:33N 49°54' W 003°12'1110.9
2017-Mar-23 14:33N 49°60' W 002°57'3812.0
2017-Mar-23 11:23N 50°09' W 001°59'1113.3
2017-Mar-23 10:33N 50°12' W 001°43'1313.5
2017-Mar-23 09:33N 50°16' W 001°23'3712.2
2017-Mar-23 06:31N 50°25' W 000°27'1111.1
2017-Mar-23 05:33N 50°28' W 000°10'1110.8
2017-Mar-23 04:30N 50°31' E 000°07'1010.8
2017-Mar-23 03:33N 50°33' E 000°23'1111.1
2017-Mar-23 02:33N 50°37' E 000°39'1111.4
2017-Mar-23 01:34N 50°44' E 000°54'1312.0
2017-Mar-23 00:27N 50°51' E 001°11'1111.9
2017-Mar-22 23:33N 50°59' E 001°23'1111.3
2017-Mar-22 22:33N 51°07' E 001°36'1110.6
2017-Mar-22 21:34N 51°14' E 001°47'1110.5
2017-Mar-22 20:33N 51°24' E 001°54'1110.5
2017-Mar-22 19:33N 51°32' E 002°05'327 9.3
2017-Mar-21 08:19N 56°13' E 006°51'7 9.2
2017-Mar-21 07:32N 56°19' E 006°58'9 9.2
2017-Mar-21 06:33N 56°26' E 007°06'124 9.4
2017-Mar-20 17:21N 57°48' E 009°57'911.1
2017-Mar-20 16:33N 57°49' E 010°14'1110.6
2017-Mar-20 15:33N 57°48' E 010°34'9 9.3
2017-Mar-20 14:33N 57°41' E 010°46'5 2.7
2017-Mar-20 12:31N 57°37' E 010°41'0 0.0
2017-Mar-20 11:28N 57°37' E 010°40'0 0.0
2017-Mar-20 10:13N 57°37' E 010°40'0 0.2
2017-Mar-20 09:07N 57°37' E 010°41'0 0.1
2017-Mar-20 08:31N 57°37' E 010°41'0 0.1
2017-Mar-20 07:28N 57°37' E 010°41'0 0.1
2017-Mar-20 06:28N 57°37' E 010°41'0 0.0
2017-Mar-20 05:28N 57°37' E 010°41'0 0.0
2017-Mar-20 04:22N 57°37' E 010°41'0 0.0
2017-Mar-20 03:28N 57°37' E 010°41'0 0.0
2017-Mar-20 02:16N 57°37' E 010°41'0 0.0
2017-Mar-20 01:25N 57°37' E 010°41'0 0.0
2017-Mar-20 00:31N 57°37' E 010°41'0 0.0
2017-Mar-19 23:10N 57°37' E 010°41'0 0.0
2017-Mar-19 22:31N 57°37' E 010°41'0 0.0
2017-Mar-19 21:31N 57°37' E 010°41'0 0.0
2017-Mar-19 20:22N 57°37' E 010°41'0 0.0
2017-Mar-19 19:28N 57°37' E 010°41'5 5.8
2017-Mar-19 18:33N 57°37' E 010°50'9 9.2
2017-Mar-19 17:33N 57°37' E 011°08'1010.2
2017-Mar-19 16:32N 57°30' E 011°23'9 9.6
2017-Mar-19 15:33N 57°22' E 011°31'10 9.6
2017-Mar-19 14:32N 57°12' E 011°36'1010.0
2017-Mar-19 13:33N 57°03' E 011°41'10 9.6
2017-Mar-19 12:32N 56°54' E 011°48'10 9.2
2017-Mar-19 11:28N 56°45' E 011°53'9 9.8
2017-Mar-19 10:33N 56°39' E 011°41'10 9.8
2017-Mar-19 09:33N 56°33' E 011°27'18 9.0
2017-Mar-19 07:32N 56°19' E 011°06'13 9.7
2017-Mar-19 06:11N 56°06' E 011°05'  
Track history (hours):
 
Tides and Currents Weather Stations Pressure Air Temp Water Temp Dewpoint Dewpoint Depression Visibility Wind Speed Wind Dir Waves Ship Positions

Clipper Panorama

Last reported at 2017-Mar-29 02:30 UTC. Time now 2017-Mar-29 19:06 UTC.
Position N 27°13' W 015°23'.

Length 180 m; draft 9.5 m.

Type: Cargo ship. MMSI: 538007055.

Date/timePositionNaut miles runAvg speedWind from/ knotsBaromVisibWave heightAir tempDewpointWater temp
2017-Mar-29 02:30N 27°13' W 015°23'4711.9
2017-Mar-28 22:33N 27°57' W 015°05'1211.9
2017-Mar-28 21:33N 28°08' W 015°00'1212.4
2017-Mar-28 20:33N 28°20' W 014°55'1212.3
2017-Mar-28 19:33N 28°31' W 014°49'1212.1
2017-Mar-28 18:33N 28°42' W 014°44'1212.2
2017-Mar-28 17:33N 28°53' W 014°38'1212.1
2017-Mar-28 16:33N 29°04' W 014°32'1212.0
2017-Mar-28 15:34N 29°15' W 014°26'1211.9
2017-Mar-28 14:33N 29°26' W 014°20'1211.9
2017-Mar-28 13:33N 29°37' W 014°15'1211.8
2017-Mar-28 12:33N 29°47' W 014°09'1211.6
2017-Mar-28 11:33N 29°58' W 014°03'1211.5
2017-Mar-28 10:33N 30°08' W 013°58'3611.7
2017-Mar-28 07:31N 30°40' W 013°40'  
2017-Mar-23 17:19N 49°44' W 003°38'911.4
2017-Mar-23 16:30N 49°49' W 003°26'1011.0
2017-Mar-23 15:33N 49°54' W 003°12'1110.9
2017-Mar-23 14:33N 49°60' W 002°57'3812.0
2017-Mar-23 11:23N 50°09' W 001°59'1113.3
2017-Mar-23 10:33N 50°12' W 001°43'1313.5
2017-Mar-23 09:33N 50°16' W 001°23'3712.2
2017-Mar-23 06:31N 50°25' W 000°27'1111.1
2017-Mar-23 05:33N 50°28' W 000°10'1110.8
2017-Mar-23 04:30N 50°31' E 000°07'1010.8
2017-Mar-23 03:33N 50°33' E 000°23'1111.1
2017-Mar-23 02:33N 50°37' E 000°39'1111.4
2017-Mar-23 01:34N 50°44' E 000°54'1312.0
2017-Mar-23 00:27N 50°51' E 001°11'1111.9
2017-Mar-22 23:33N 50°59' E 001°23'1111.3
2017-Mar-22 22:33N 51°07' E 001°36'1110.6
2017-Mar-22 21:34N 51°14' E 001°47'1110.5
2017-Mar-22 20:33N 51°24' E 001°54'1110.5
2017-Mar-22 19:33N 51°32' E 002°05'327 9.3
2017-Mar-21 08:19N 56°13' E 006°51'7 9.2
2017-Mar-21 07:32N 56°19' E 006°58'9 9.2
2017-Mar-21 06:33N 56°26' E 007°06'124 9.4
2017-Mar-20 17:21N 57°48' E 009°57'911.1
2017-Mar-20 16:33N 57°49' E 010°14'1110.6
2017-Mar-20 15:33N 57°48' E 010°34'9 9.3
2017-Mar-20 14:33N 57°41' E 010°46'5 2.7
2017-Mar-20 12:31N 57°37' E 010°41'0 0.0
2017-Mar-20 11:28N 57°37' E 010°40'0 0.0
2017-Mar-20 10:13N 57°37' E 010°40'0 0.2
2017-Mar-20 09:07N 57°37' E 010°41'0 0.1
2017-Mar-20 08:31N 57°37' E 010°41'0 0.1
2017-Mar-20 07:28N 57°37' E 010°41'0 0.1
2017-Mar-20 06:28N 57°37' E 010°41'0 0.0
2017-Mar-20 05:28N 57°37' E 010°41'0 0.0
2017-Mar-20 04:22N 57°37' E 010°41'0 0.0
2017-Mar-20 03:28N 57°37' E 010°41'0 0.0
2017-Mar-20 02:16N 57°37' E 010°41'0 0.0
2017-Mar-20 01:25N 57°37' E 010°41'0 0.0
2017-Mar-20 00:31N 57°37' E 010°41'0 0.0
2017-Mar-19 23:10N 57°37' E 010°41'0 0.0
2017-Mar-19 22:31N 57°37' E 010°41'0 0.0
2017-Mar-19 21:31N 57°37' E 010°41'0 0.0
2017-Mar-19 20:22N 57°37' E 010°41'0 0.0
2017-Mar-19 19:28N 57°37' E 010°41'5 5.8
2017-Mar-19 18:33N 57°37' E 010°50'9 9.2
2017-Mar-19 17:33N 57°37' E 011°08'1010.2
2017-Mar-19 16:32N 57°30' E 011°23'9 9.6
2017-Mar-19 15:33N 57°22' E 011°31'10 9.6
2017-Mar-19 14:32N 57°12' E 011°36'1010.0
2017-Mar-19 13:33N 57°03' E 011°41'10 9.6
2017-Mar-19 12:32N 56°54' E 011°48'10 9.2
2017-Mar-19 11:28N 56°45' E 011°53'9 9.8
2017-Mar-19 10:33N 56°39' E 011°41'10 9.8
2017-Mar-19 09:33N 56°33' E 011°27'18 9.0
2017-Mar-19 07:32N 56°19' E 011°06'13 9.7
2017-Mar-19 06:11N 56°06' E 011°05'  

Dump ship's entire track history